Time;durP1;ratioP1;P1;durP2;ratioP2;P2;SDS_P1;SDS_P2;PMS_P1;PMS_P2;Temp;Humidity;BMP_temperature;BMP_pressure;BME280_temperature;BME280_humidity;BME280_pressure;Samples;Min_cycle;Max_cycle;Signal;HPM_P1;HPM_P2
2022/09/09 00:02:27;;;;;;;;;;;;;;;19.34;59.17;99817.50;5002653;28;8415;-83
2022/09/09 00:05:33;;;;;;;;;;;;;;;19.27;59.63;99808.84;4951085;28;6983;-83
2022/09/09 00:08:24;;;;;;;;;;;;;;;19.27;59.09;99814.88;4979450;28;6988;-83
2022/09/09 00:11:22;;;;;;;;;;;;;;;;;;;;;
2022/09/09 00:14:13;;;;;;;;;;;;;;;19.19;59.90;99810.53;5009363;28;6840;-83
2022/09/09 00:17:25;;;;;;;;;;;;;;;19.16;59.73;99803.59;5005272;28;6974;-83
2022/09/09 00:19:53;;;;;;;;;;;;;;;19.14;59.71;99805.34;4963006;28;7095;-82
2022/09/09 00:22:26;;;;;;;;;;;;;;;19.14;59.52;99794.94;5010207;28;7093;-84
2022/09/09 00:25:33;;;;;;;;;;;;;;;19.11;59.15;99790.59;4985133;28;7002;-83
2022/09/09 00:28:32;;;;;;;;;;;;;;;19.09;59.32;99786.25;5000709;28;6800;-83
2022/09/09 00:31:23;;;;;;;;;;;;;;;19.06;59.15;99786.25;5000263;28;7199;-83
2022/09/09 00:33:53;;;;;;;;;;;;;;;19.03;59.56;99789.69;4979284;28;7221;-83
2022/09/09 00:36:25;;;;;;;;;;;;;;;19.02;59.06;99790.56;4994160;28;6800;-83
2022/09/09 00:39:40;;;;;;;;;;;;;;;19.00;59.58;99781.88;4996538;28;6911;-83
2022/09/09 00:42:33;;;;;;;;;;;;;;;18.97;59.02;99782.72;4993707;28;6989;-84
2022/09/09 00:46:14;;;;;;;;;;;;;;;18.94;59.06;99787.91;5009685;28;6984;-83
2022/09/09 00:49:45;;;;;;;;;;;;;;;18.92;59.37;99783.56;4996084;28;6810;-83
2022/09/09 00:53:00;;;;;;;;;;;;;;;;;;;;;
2022/09/09 00:55:40;;;;;;;;;;;;;;;18.89;59.34;99784.41;4992270;28;6827;-83
2022/09/09 00:58:32;;;;;;;;;;;;;;;18.87;59.54;99784.41;4993619;28;6843;-83
2022/09/09 01:01:12;;;;;;;;;;;;;;;18.90;59.74;99775.78;5006288;28;6804;-82
2022/09/09 01:03:53;;;;;;;;;;;;;;;18.89;59.73;99779.22;4993955;28;7000;-83
2022/09/09 01:06:44;;;;;;;;;;;;;;;18.89;59.12;99779.22;4996838;28;6992;-83
2022/09/09 01:09:56;;;;;;;;;;;;;;;18.87;59.45;99778.38;4993814;28;6795;-82
2022/09/09 01:12:37;;;;;;;;;;;;;;;18.85;59.85;99778.34;4995810;28;6888;-83
2022/09/09 01:15:34;;;;;;;;;;;;;;;18.85;59.24;99785.28;5012199;28;7105;-83
2022/09/09 01:18:21;;;;;;;;;;;;;;;18.81;59.27;99779.22;5011737;28;6838;-83
2022/09/09 01:21:34;;;;;;;;;;;;;;;;;;;;;
2022/09/09 01:24:59;;;;;;;;;;;;;;;18.83;60.10;99787.88;4998261;28;6848;-83
2022/09/09 01:27:46;;;;;;;;;;;;;;;18.81;59.63;99780.91;4991859;28;7002;-83
2022/09/09 01:30:20;;;;;;;;;;;;;;;18.83;59.43;99786.97;4977545;28;6958;-83
2022/09/09 01:33:15;;;;;;;;;;;;;;;18.84;59.48;99787.00;4981588;28;11034;-84
2022/09/09 01:35:56;;;;;;;;;;;;;;;18.85;59.54;99786.13;4988887;28;6978;-83
2022/09/09 01:38:25;;;;;;;;;;;;;;;18.88;59.85;99777.50;5008204;28;8402;-84
2022/09/09 01:41:14;;;;;;;;;;;;;;;18.90;60.27;99778.38;5027592;28;6980;-83
2022/09/09 01:43:45;;;;;;;;;;;;;;;18.93;60.03;99778.41;4996257;28;6976;-83
2022/09/09 01:46:33;;;;;;;;;;;;;;;;;;;;;
2022/09/09 01:49:24;;;;;;;;;;;;;;;18.96;60.28;99774.91;5006408;28;6823;-83
2022/09/09 01:52:15;;;;;;;;;;;;;;;;;;;;;
2022/09/09 01:55:11;;;;;;;;;;;;;;;19.00;60.26;99767.19;5014655;28;6892;-83
2022/09/09 01:58:48;;;;;;;;;;;;;;;19.05;60.48;99776.72;4998177;28;7164;-83
2022/09/09 02:01:30;;;;;;;;;;;;;;;19.07;60.50;99778.44;4931258;28;6996;-83
2022/09/09 02:04:07;;;;;;;;;;;;;;;19.12;60.63;99781.06;4976229;28;6984;-83
2022/09/09 02:06:43;;;;;;;;;;;;;;;19.21;60.14;99781.09;5001349;28;7326;-83
2022/09/09 02:09:39;;;;;;;;;;;;;;;19.27;60.50;99781.09;4992282;28;6978;-83
2022/09/09 02:12:52;;;;;;;;;;;;;;;19.36;59.76;99774.19;4982939;28;7062;-84
2022/09/09 02:15:47;;;;;;;;;;;;;;;19.43;60.35;99770.75;4992434;28;6973;-83
2022/09/09 02:18:27;;;;;;;;;;;;;;;19.49;59.67;99768.16;4996225;28;6969;-83
2022/09/09 02:21:07;;;;;;;;;;;;;;;19.55;59.63;99765.56;4993010;28;8620;-83
2022/09/09 02:23:37;;;;;;;;;;;;;;;19.60;60.00;99772.50;5011856;28;6831;-83
2022/09/09 02:26:04;;;;;;;;;;;;;;;19.62;60.15;99760.38;5012626;28;7006;-83
2022/09/09 02:31:25;;;;;;;;;;;;;;;19.62;59.26;99755.19;5001020;28;6804;-83
2022/09/09 02:34:16;;;;;;;;;;;;;;;;;;;;;
2022/09/09 02:36:57;;;;;;;;;;;;;;;19.62;59.44;99758.63;4996882;28;6808;-83
2022/09/09 02:39:34;;;;;;;;;;;;;;;19.63;59.87;99764.72;5010541;28;6974;-84
2022/09/09 02:42:25;;;;;;;;;;;;;;;;;;;;;
2022/09/09 02:45:03;;;;;;;;;;;;;;;19.60;59.93;99754.28;5012321;28;6963;-83
2022/09/09 02:48:26;;;;;;;;;;;;;;;19.60;59.39;99760.38;5012684;28;6812;-83
2022/09/09 02:51:42;;;;;;;;;;;;;;;19.61;59.40;99758.66;4997829;28;7186;-83
2022/09/09 02:54:41;;;;;;;;;;;;;;;19.63;60.00;99751.72;5010876;28;6973;-83
2022/09/09 02:57:25;;;;;;;;;;;;;;;19.69;60.16;99759.50;4994174;28;6886;-83
2022/09/09 03:00:21;;;;;;;;;;;;;;;19.77;60.24;99755.16;5006508;28;6965;-84
2022/09/09 03:03:00;;;;;;;;;;;;;;;19.82;59.47;99748.25;5011036;28;13001;-84
2022/09/09 03:05:55;;;;;;;;;;;;;;;19.85;59.66;99744.78;4997378;28;6967;-83
2022/09/09 03:08:40;;;;;;;;;;;;;;;;;;;;;
2022/09/09 03:11:20;;;;;;;;;;;;;;;19.91;59.20;99751.72;4997889;28;6808;-83
2022/09/09 03:13:59;;;;;;;;;;;;;;;19.97;60.01;99760.41;5009558;28;7123;-83
2022/09/09 03:16:33;;;;;;;;;;;;;;;19.97;59.09;99752.59;4998047;28;6812;-83
2022/09/09 03:19:30;;;;;;;;;;;;;;;;;;;;;
2022/09/09 03:22:15;;;;;;;;;;;;;;;20.01;59.27;99755.19;5009897;28;6816;-83
2022/09/09 03:24:41;;;;;;;;;;;;;;;20.04;59.27;99747.38;4998212;28;8388;-83
2022/09/09 03:27:10;;;;;;;;;;;;;;;20.06;59.44;99748.25;4986168;28;6950;-83
2022/09/09 03:29:45;;;;;;;;;;;;;;;20.06;59.17;99751.72;4995019;28;8579;-84
2022/09/09 03:32:17;;;;;;;;;;;;;;;20.08;59.24;99749.97;4993877;28;7006;-83
2022/09/09 03:34:44;;;;;;;;;;;;;;;20.08;59.36;99749.13;5015268;28;6840;-83
2022/09/09 03:37:10;;;;;;;;;;;;;;;20.08;59.20;99752.56;4995079;28;6989;-84
2022/09/09 03:39:37;;;;;;;;;;;;;;;20.05;59.22;99747.38;5011298;28;7189;-83
2022/09/09 03:42:05;;;;;;;;;;;;;;;20.07;58.96;99756.03;4984593;28;6967;-83
2022/09/09 03:44:31;;;;;;;;;;;;;;;20.05;59.25;99760.38;5016805;28;7200;-83
2022/09/09 03:47:03;;;;;;;;;;;;;;;20.04;58.73;99758.66;4996731;28;7022;-83
2022/09/09 03:49:32;;;;;;;;;;;;;;;20.03;58.71;99756.94;5012458;28;7300;-83
2022/09/09 03:51:58;;;;;;;;;;;;;;;20.03;58.81;99746.53;4981710;28;6806;-83
2022/09/09 03:54:51;;;;;;;;;;;;;;;20.02;58.63;99757.81;4997564;28;6796;-83
2022/09/09 03:57:17;;;;;;;;;;;;;;;20.04;58.97;99758.66;4989797;28;6983;-83
2022/09/09 03:59:52;;;;;;;;;;;;;;;20.06;58.83;99749.13;4995019;28;6803;-82
2022/09/09 04:02:54;;;;;;;;;;;;;;;20.03;59.04;99759.53;4996929;28;6996;-83
2022/09/09 04:06:11;;;;;;;;;;;;;;;;;;;;;
2022/09/09 04:08:55;;;;;;;;;;;;;;;;;;;;;
2022/09/09 04:11:42;;;;;;;;;;;;;;;20.07;59.19;99748.25;5011876;28;6838;-83
2022/09/09 04:14:47;;;;;;;;;;;;;;;20.09;58.51;99746.53;5014503;28;6965;-83
2022/09/09 04:17:13;;;;;;;;;;;;;;;20.17;58.67;99753.44;4957837;28;7070;-83
2022/09/09 04:19:42;;;;;;;;;;;;;;;20.19;58.33;99752.56;4998226;28;7186;-83
2022/09/09 04:22:41;;;;;;;;;;;;;;;20.19;58.54;99744.75;4998675;28;7163;-83
2022/09/09 04:25:24;;;;;;;;;;;;;;;20.19;58.15;99739.56;4990626;28;7028;-82
2022/09/09 04:28:00;;;;;;;;;;;;;;;20.25;58.82;99738.66;4985022;28;7143;-83
2022/09/09 04:31:24;;;;;;;;;;;;;;;20.26;58.21;99735.19;4985938;28;6974;-83
2022/09/09 04:34:16;;;;;;;;;;;;;;;20.30;58.44;99730.84;4996432;28;6877;-83
2022/09/09 04:37:11;;;;;;;;;;;;;;;;;;;;;
2022/09/09 04:40:02;;;;;;;;;;;;;;;;;;;;;
2022/09/09 04:42:29;;;;;;;;;;;;;;;20.34;58.52;99748.22;5003289;28;6848;-83
2022/09/09 04:45:38;;;;;;;;;;;;;;;20.34;57.91;99736.03;5013382;28;6983;-82
2022/09/09 04:48:10;;;;;;;;;;;;;;;20.33;57.83;99738.63;5007592;28;7007;-83
2022/09/09 04:51:13;;;;;;;;;;;;;;;;;;;;;
2022/09/09 04:53:50;;;;;;;;;;;;;;;20.35;57.88;99747.34;5003801;28;6896;-83
2022/09/09 04:56:51;;;;;;;;;;;;;;;;;;;;;
2022/09/09 05:00:05;;;;;;;;;;;;;;;20.35;57.98;99749.94;5012278;28;6804;-83
2022/09/09 05:02:43;;;;;;;;;;;;;;;20.33;58.21;99749.06;4987212;28;7031;-83
2022/09/09 05:09:10;;;;;;;;;;;;;;;;;;;;;
2022/09/09 05:11:48;;;;;;;;;;;;;;;20.32;57.71;99755.13;4993625;28;6821;-83
2022/09/09 05:14:54;;;;;;;;;;;;;;;;;;;;;
2022/09/09 05:21:53;;;;;;;;;;;;;;;;;;;;;
2022/09/09 05:24:39;;;;;;;;;;;;;;;;;;;;;
2022/09/09 05:27:05;;;;;;;;;;;;;;;20.32;57.87;99757.72;5000813;28;6807;-82
2022/09/09 05:30:06;;;;;;;;;;;;;;;;;;;;;
2022/09/09 05:33:30;;;;;;;;;;;;;;;20.30;57.79;99759.47;5011033;28;6788;-83
2022/09/09 05:36:03;;;;;;;;;;;;;;;20.29;57.51;99756.03;4993085;28;6911;-83
2022/09/09 05:38:53;;;;;;;;;;;;;;;20.29;57.12;99760.34;4996272;28;6997;-82
2022/09/09 05:41:56;;;;;;;;;;;;;;;20.25;57.17;99749.06;4996161;28;7066;-83
2022/09/09 05:44:33;;;;;;;;;;;;;;;;;;;;;
2022/09/09 05:47:29;;;;;;;;;;;;;;;20.25;57.03;99751.69;4992881;28;6844;-83
2022/09/09 05:50:05;;;;;;;;;;;;;;;;;;;;;
2022/09/09 05:53:10;;;;;;;;;;;;;;;;;;;;;
2022/09/09 05:55:56;;;;;;;;;;;;;;;;;;;;;
2022/09/09 05:59:06;;;;;;;;;;;;;;;;;;;;;
2022/09/09 06:01:46;;;;;;;;;;;;;;;20.38;57.37;99756.00;4984784;28;6956;-85
2022/09/09 06:04:12;;;;;;;;;;;;;;;20.42;57.03;99748.19;4996943;28;6837;-85
2022/09/09 06:07:42;;;;;;;;;;;;;;;;;;;;;
2022/09/09 06:10:54;;;;;;;;;;;;;;;20.51;56.65;99751.59;4977968;28;6812;-85
2022/09/09 06:13:55;;;;;;;;;;;;;;;20.53;56.68;99751.59;4934701;29;6804;-82
2022/09/09 06:16:39;;;;;;;;;;;;;;;;;;;;;
2022/09/09 06:26:09;;;;;;;;;;;;;;;;;;;;;
2022/09/09 06:28:59;;;;;;;;;;;;;;;;;;;;;
2022/09/09 06:31:49;;;;;;;;;;;;;;;;;;;;;
2022/09/09 06:34:50;;;;;;;;;;;;;;;20.37;56.07;99756.00;5008188;28;6832;-83
2022/09/09 06:37:23;;;;;;;;;;;;;;;20.34;56.57;99754.25;4992869;28;6982;-83
2022/09/09 06:39:58;;;;;;;;;;;;;;;20.37;56.43;99762.06;4994923;28;7000;-82
2022/09/09 06:42:50;;;;;;;;;;;;;;;;;;;;;
2022/09/09 06:45:46;;;;;;;;;;;;;;;;;;;;;
2022/09/09 06:48:21;;;;;;;;;;;;;;;20.71;56.49;99760.22;5006060;28;6822;-83
2022/09/09 06:50:46;;;;;;;;;;;;;;;20.74;56.19;99741.97;4999419;28;6988;-84
2022/09/09 06:53:24;;;;;;;;;;;;;;;20.81;56.00;99748.91;5010944;28;8411;-83
2022/09/09 06:56:07;;;;;;;;;;;;;;;;;;;;;
2022/09/09 06:58:58;;;;;;;;;;;;;;;20.92;55.99;99754.09;4996080;28;6838;-84
2022/09/09 07:01:58;;;;;;;;;;;;;;;21.05;56.21;99744.44;4988117;28;6901;-83
2022/09/09 07:05:08;;;;;;;;;;;;;;;21.26;55.70;99751.28;5010657;28;7084;-83
2022/09/09 07:07:53;;;;;;;;;;;;;;;21.49;55.71;99750.28;4992851;28;6842;-83
2022/09/09 07:11:04;;;;;;;;;;;;;;;;;;;;;
2022/09/09 07:16:46;;;;;;;;;;;;;;;21.85;54.75;99753.47;5011019;28;6806;-84
2022/09/09 07:22:29;;;;;;;;;;;;;;;22.10;54.02;99749.75;4965530;28;6817;-83
2022/09/09 07:26:02;;;;;;;;;;;;;;;22.16;53.69;99758.41;4946218;28;6849;-84
2022/09/09 07:28:59;;;;;;;;;;;;;;;;;;;;;
2022/09/09 07:31:48;;;;;;;;;;;;;;;22.23;53.48;99753.13;5008548;28;6804;-83
2022/09/09 07:34:24;;;;;;;;;;;;;;;;;;;;;
2022/09/09 07:37:18;;;;;;;;;;;;;;;22.16;52.93;99750.59;4996210;28;6863;-83
2022/09/09 07:40:13;;;;;;;;;;;;;;;22.11;53.26;99751.50;4972399;28;6827;-83
2022/09/09 07:43:15;;;;;;;;;;;;;;;;;;;;;
2022/09/09 07:45:47;;;;;;;;;;;;;;;22.15;52.87;99751.44;4992777;28;6839;-83
2022/09/09 07:48:42;;;;;;;;;;;;;;;;;;;;;
2022/09/09 07:51:37;;;;;;;;;;;;;;;22.21;52.60;99753.13;4994328;28;6832;-84
2022/09/09 07:54:23;;;;;;;;;;;;;;;;;;;;;
2022/09/09 07:57:12;;;;;;;;;;;;;;;22.34;52.61;99748.66;4994370;28;6838;-83
2022/09/09 08:00:51;;;;;;;;;;;;;;;;;;;;;
2022/09/09 08:03:28;;;;;;;;;;;;;;;;;;;;;
2022/09/09 08:06:27;;;;;;;;;;;;;;;22.54;51.81;99761.50;4992124;28;6817;-84
2022/09/09 08:09:15;;;;;;;;;;;;;;;22.63;51.79;99760.53;4994834;28;6873;-83
2022/09/09 08:11:55;;;;;;;;;;;;;;;;;;;;;
2022/09/09 08:14:48;;;;;;;;;;;;;;;22.84;51.14;99769.84;5011803;28;6833;-83
2022/09/09 08:17:32;;;;;;;;;;;;;;;22.80;51.24;99764.69;5028550;28;6794;-83
2022/09/09 08:20:33;;;;;;;;;;;;;;;;;;;;;
2022/09/09 08:24:26;;;;;;;;;;;;;;;;;;;;;
2022/09/09 08:27:25;;;;;;;;;;;;;;;22.88;50.82;99779.38;4979249;28;6825;-84
2022/09/09 08:30:30;;;;;;;;;;;;;;;;;;;;;
2022/09/09 08:33:40;;;;;;;;;;;;;;;;;;;;;
2022/09/09 08:36:33;;;;;;;;;;;;;;;;;;;;;
2022/09/09 08:39:17;;;;;;;;;;;;;;;;;;;;;
2022/09/09 08:42:00;;;;;;;;;;;;;;;23.78;49.35;99785.09;4995439;28;6960;-84
2022/09/09 08:44:45;;;;;;;;;;;;;;;23.89;48.89;99786.66;4994495;28;7063;-84
2022/09/09 08:47:32;;;;;;;;;;;;;;;23.98;48.55;99781.25;5013639;28;7009;-83
2022/09/09 08:51:02;;;;;;;;;;;;;;;;;;;;;
2022/09/09 08:56:54;;;;;;;;;;;;;;;;;;;;;
2022/09/09 08:59:53;;;;;;;;;;;;;;;;;;;;;
2022/09/09 09:02:43;;;;;;;;;;;;;;;24.00;47.79;99788.19;4996383;28;6812;-84
2022/09/09 09:05:32;;;;;;;;;;;;;;;24.08;48.08;99789.88;4995360;28;6966;-83
2022/09/09 09:08:37;;;;;;;;;;;;;;;24.23;47.60;99788.72;4978517;28;7117;-83
2022/09/09 09:11:07;;;;;;;;;;;;;;;24.34;47.54;99788.53;4979052;28;7094;-83
2022/09/09 09:14:26;;;;;;;;;;;;;;;;;;;;;
2022/09/09 09:24:34;;;;;;;;;;;;;;;;;;;;;
2022/09/09 09:28:01;;;;;;;;;;;;;;;25.17;45.89;99792.97;4991360;28;6842;-84
2022/09/09 09:34:11;;;;;;;;;;;;;;;25.30;45.16;99783.09;4985358;28;6960;-85
2022/09/09 09:37:01;;;;;;;;;;;;;;;25.29;44.95;99792.69;4979657;28;8576;-84
2022/09/09 09:39:49;;;;;;;;;;;;;;;;;;;;;
2022/09/09 09:43:23;;;;;;;;;;;;;;;25.32;44.63;99783.91;5006504;28;6832;-84
2022/09/09 09:46:13;;;;;;;;;;;;;;;;;;;;;
2022/09/09 09:49:30;;;;;;;;;;;;;;;25.42;43.98;99787.19;4994208;28;6891;-84
2022/09/09 09:52:25;;;;;;;;;;;;;;;25.38;43.65;99786.41;4993284;28;7029;-84
2022/09/09 09:55:09;;;;;;;;;;;;;;;25.25;43.27;99791.06;4994097;28;7065;-83
2022/09/09 09:58:38;;;;;;;;;;;;;;;;;;;;;
2022/09/09 10:01:31;;;;;;;;;;;;;;;;;;;;;
2022/09/09 10:04:36;;;;;;;;;;;;;;;;;;;;;
2022/09/09 10:07:27;;;;;;;;;;;;;;;24.59;43.81;99798.53;4995243;28;6975;-84
2022/09/09 10:10:25;;;;;;;;;;;;;;;24.54;43.82;99803.84;4991816;28;8436;-84
2022/09/09 10:13:54;;;;;;;;;;;;;;;;;;;;;
2022/09/09 10:16:56;;;;;;;;;;;;;;;;;;;;;
2022/09/09 10:20:23;;;;;;;;;;;;;;;;;;;;;
2022/09/09 10:24:07;;;;;;;;;;;;;;;;;;;;;
2022/09/09 10:27:46;;;;;;;;;;;;;;;;;;;;;
2022/09/09 10:31:30;;;;;;;;;;;;;;;;;;;;;
2022/09/09 10:34:53;;;;;;;;;;;;;;;25.31;44.17;99801.41;4996900;28;6819;-84
2022/09/09 10:37:42;;;;;;;;;;;;;;;25.78;43.90;99805.59;4996203;28;6995;-82
2022/09/09 10:41:02;;;;;;;;;;;;;;;26.25;43.51;99793.94;4991145;28;6986;-84
2022/09/09 10:44:16;;;;;;;;;;;;;;;;;;;;;
2022/09/09 10:47:23;;;;;;;;;;;;;;;27.09;41.66;99792.47;4995042;28;6998;-83
2022/09/09 10:50:19;;;;;;;;;;;;;;;27.44;41.75;99802.81;4993935;28;6800;-83
2022/09/09 10:53:45;;;;;;;;;;;;;;;27.77;40.36;99789.50;4990748;28;7001;-85
2022/09/09 10:56:27;;;;;;;;;;;;;;;27.76;40.83;99802.69;4995785;28;7159;-83
2022/09/09 10:59:23;;;;;;;;;;;;;;;28.38;39.87;99790.09;4996750;28;6975;-84
2022/09/09 11:03:14;;;;;;;;;;;;;;;;;;;;;
2022/09/09 11:06:12;;;;;;;;;;;;;;;28.42;37.41;99786.41;4975241;28;6856;-84
2022/09/09 11:08:42;;;;;;;;;;;;;;;28.20;38.51;99778.41;4953565;28;6797;-84
2022/09/09 11:11:26;;;;;;;;;;;;;;;28.63;38.28;99784.78;4956692;28;6784;-84
2022/09/09 11:13:52;;;;;;;;;;;;;;;29.34;38.21;99783.00;4983923;28;8480;-84
2022/09/09 11:17:02;;;;;;;;;;;;;;;;;;;;;
2022/09/09 11:19:38;;;;;;;;;;;;;;;29.63;37.77;99775.69;4994825;28;6868;-84
2022/09/09 11:22:42;;;;;;;;;;;;;;;29.69;36.41;99782.50;5012824;28;7197;-84
2022/09/09 11:25:21;;;;;;;;;;;;;;;29.40;37.09;99777.47;4979426;28;6831;-83
2022/09/09 11:27:52;;;;;;;;;;;;;;;28.93;36.48;99781.94;5009609;28;6807;-83
2022/09/09 11:30:34;;;;;;;;;;;;;;;28.42;36.64;99778.50;4995593;28;6960;-83
2022/09/09 11:33:43;;;;;;;;;;;;;;;27.85;37.75;99784.84;4977651;28;7212;-84
2022/09/09 11:36:42;;;;;;;;;;;;;;;27.41;38.49;99795.88;5009219;28;7016;-84
2022/09/09 11:39:26;;;;;;;;;;;;;;;27.04;39.02;99789.13;5011816;28;6788;-84
2022/09/09 11:41:52;;;;;;;;;;;;;;;26.78;39.78;99790.72;4993457;28;7018;-83
2022/09/09 11:44:30;;;;;;;;;;;;;;;26.65;39.76;99784.09;5011553;28;6955;-83
2022/09/09 11:46:56;;;;;;;;;;;;;;;26.46;39.70;99795.13;4988879;28;7130;-84
2022/09/09 11:49:43;;;;;;;;;;;;;;;26.19;40.13;99793.22;5014237;28;6950;-84
2022/09/09 11:52:48;;;;;;;;;;;;;;;25.88;40.49;99787.84;5000440;28;6975;-83
2022/09/09 11:55:36;;;;;;;;;;;;;;;25.30;41.56;99818.06;5002381;28;6804;-83
2022/09/09 11:58:06;;;;;;;;;;;;;;;24.78;42.40;99818.25;4977485;28;6843;-83
2022/09/09 12:00:36;;;;;;;;;;;;;;;24.24;43.60;99812.25;4991772;28;7128;-84
2022/09/09 12:03:15;;;;;;;;;;;;;;;;;;;;;
2022/09/09 12:05:59;;;;;;;;;;;;;;;23.60;45.47;99824.59;4995028;28;6972;-83
2022/09/09 12:08:39;;;;;;;;;;;;;;;;;;;;;
2022/09/09 12:11:23;;;;;;;;;;;;;;;23.27;46.66;99818.06;5009511;28;6796;-83
2022/09/09 12:14:59;;;;;;;;;;;;;;;;;;;;;
2022/09/09 12:17:54;;;;;;;;;;;;;;;23.19;47.13;99813.84;4998208;28;6860;-84
2022/09/09 12:20:47;;;;;;;;;;;;;;;;;;;;;
2022/09/09 12:23:49;;;;;;;;;;;;;;;23.23;47.00;99820.75;5014104;28;6792;-84
2022/09/09 12:27:35;;;;;;;;;;;;;;;;;;;;;
2022/09/09 12:30:28;;;;;;;;;;;;;;;;;;;;;
2022/09/09 12:33:45;;;;;;;;;;;;;;;;;;;;;
2022/09/09 12:36:50;;;;;;;;;;;;;;;24.45;46.30;99783.94;4989758;28;6819;-83
2022/09/09 12:40:45;;;;;;;;;;;;;;;24.67;46.14;99788.75;4998971;28;6847;-84
2022/09/09 12:42:58;;;;;;;;;;;;;;;24.72;45.34;99791.28;4988018;28;6856;-84
2022/09/09 12:46:31;;;;;;;;;;;;;;;;;;;;;
2022/09/09 12:48:59;;;;;;;;;;;;;;;;;;;;;
2022/09/09 12:51:57;;;;;;;;;;;;;;;24.54;45.07;99788.13;5006876;28;6897;-84
2022/09/09 12:54:47;;;;;;;;;;;;;;;;;;;;;
2022/09/09 12:57:34;;;;;;;;;;;;;;;24.17;45.53;99792.31;5011636;28;6812;-84
2022/09/09 13:00:44;;;;;;;;;;;;;;;23.82;46.42;99809.44;5001159;28;6988;-84
2022/09/09 13:03:40;;;;;;;;;;;;;;;;;;;;;
2022/09/09 13:06:51;;;;;;;;;;;;;;;;;;;;;
2022/09/09 13:10:20;;;;;;;;;;;;;;;25.22;48.24;99765.75;4967343;28;6817;-84
2022/09/09 13:13:08;;;;;;;;;;;;;;;;;;;;;
2022/09/09 13:16:14;;;;;;;;;;;;;;;;;;;;;
2022/09/09 13:19:21;;;;;;;;;;;;;;;;;;;;;
2022/09/09 13:23:03;;;;;;;;;;;;;;;;;;;;;
2022/09/09 13:26:09;;;;;;;;;;;;;;;29.38;40.78;99745.88;5002017;28;6872;-84
2022/09/09 13:29:00;;;;;;;;;;;;;;;29.72;39.81;99743.63;4980335;28;6855;-85
2022/09/09 13:35:46;;;;;;;;;;;;;;;29.32;40.01;99739.97;4905639;29;6988;-84
2022/09/09 13:39:25;;;;;;;;;;;;;;;;;;;;;
2022/09/09 13:42:14;;;;;;;;;;;;;;;28.23;41.09;99738.81;4994272;28;6829;-84
2022/09/09 13:45:19;;;;;;;;;;;;;;;;;;;;;
2022/09/09 13:48:08;;;;;;;;;;;;;;;27.59;41.32;99736.53;4917436;29;6983;-84
2022/09/09 13:51:45;;;;;;;;;;;;;;;;;;;;;
2022/09/09 13:54:25;;;;;;;;;;;;;;;26.62;41.87;99740.38;4997827;28;6919;-84
2022/09/09 13:57:11;;;;;;;;;;;;;;;;;;;;;
2022/09/09 13:59:51;;;;;;;;;;;;;;;25.51;42.74;99773.91;4997569;28;6849;-85
2022/09/09 14:02:22;;;;;;;;;;;;;;;24.97;43.56;99760.22;5000076;28;7354;-84
2022/09/09 14:04:57;;;;;;;;;;;;;;;24.58;44.70;99754.88;4996843;28;8535;-83
2022/09/09 14:07:26;;;;;;;;;;;;;;;24.57;46.33;99753.16;5010826;28;6854;-84
2022/09/09 14:10:22;;;;;;;;;;;;;;;;;;;;;
2022/09/09 14:12:55;;;;;;;;;;;;;;;25.57;46.98;99749.28;5005454;28;6835;-84
2022/09/09 14:15:21;;;;;;;;;;;;;;;25.91;46.19;99749.28;5011073;28;7066;-84
2022/09/09 14:17:48;;;;;;;;;;;;;;;26.12;46.35;99735.59;4995983;28;7179;-84
2022/09/09 14:20:18;;;;;;;;;;;;;;;26.38;45.58;99747.19;5007613;28;7009;-84
2022/09/09 14:23:23;;;;;;;;;;;;;;;26.48;45.05;99754.78;4997631;28;6915;-84
2022/09/09 14:25:58;;;;;;;;;;;;;;;26.48;44.97;99749.53;4978325;28;6835;-84
2022/09/09 14:28:25;;;;;;;;;;;;;;;26.34;44.52;99736.78;4998606;28;7193;-84
2022/09/09 14:31:00;;;;;;;;;;;;;;;26.31;44.46;99741.25;5010548;28;6950;-84
2022/09/09 14:34:27;;;;;;;;;;;;;;;;;;;;;
2022/09/09 14:36:52;;;;;;;;;;;;;;;26.18;44.14;99738.94;4995505;28;6792;-84
2022/09/09 14:40:02;;;;;;;;;;;;;;;;;;;;;
2022/09/09 14:43:35;;;;;;;;;;;;;;;;;;;;;
2022/09/09 14:46:49;;;;;;;;;;;;;;;;;;;;;
2022/09/09 14:49:15;;;;;;;;;;;;;;;25.83;43.94;99739.84;5011331;28;6881;-84
2022/09/09 14:51:52;;;;;;;;;;;;;;;25.71;43.66;99741.06;5014295;28;6962;-83
2022/09/09 14:55:31;;;;;;;;;;;;;;;;;;;;;
2022/09/09 14:57:46;;;;;;;;;;;;;;;26.23;43.62;99720.47;4995095;28;6801;-84
2022/09/09 15:00:15;;;;;;;;;;;;;;;26.38;42.05;99739.31;5012425;28;6984;-84
2022/09/09 15:02:44;;;;;;;;;;;;;;;26.30;42.23;99739.53;5012212;28;11208;-85
2022/09/09 15:05:31;;;;;;;;;;;;;;;26.10;42.45;99729.53;4993544;28;6872;-84
2022/09/09 15:07:58;;;;;;;;;;;;;;;26.13;42.99;99727.69;4987851;28;8501;-84
2022/09/09 15:10:24;;;;;;;;;;;;;;;26.34;43.21;99728.03;4999026;28;6984;-84
2022/09/09 15:12:53;;;;;;;;;;;;;;;26.66;43.00;99735.88;4997070;28;6794;-84
2022/09/09 15:15:25;;;;;;;;;;;;;;;26.90;42.47;99729.06;5010942;28;7003;-85
2022/09/09 15:18:18;;;;;;;;;;;;;;;27.03;41.85;99733.03;4999097;28;6983;-85
2022/09/09 15:20:46;;;;;;;;;;;;;;;26.85;41.73;99746.72;4993467;28;7051;-83
2022/09/09 15:23:12;;;;;;;;;;;;;;;26.53;41.88;99740.63;4997010;28;6972;-84
2022/09/09 15:25:54;;;;;;;;;;;;;;;26.15;42.22;99741.63;4994375;28;7175;-84
2022/09/09 15:28:21;;;;;;;;;;;;;;;25.81;42.28;99741.66;5008230;28;6984;-84
2022/09/09 15:30:52;;;;;;;;;;;;;;;25.47;42.96;99744.22;5013529;28;6872;-84
2022/09/09 15:33:22;;;;;;;;;;;;;;;25.18;43.25;99753.63;4981762;28;6962;-84
2022/09/09 15:35:49;;;;;;;;;;;;;;;24.95;44.48;99754.16;5010672;28;7129;-84
2022/09/09 15:38:17;;;;;;;;;;;;;;;24.73;44.22;99762.44;5009643;28;6960;-84
2022/09/09 15:40:46;;;;;;;;;;;;;;;24.55;45.11;99758.44;5003152;28;6933;-84
2022/09/09 15:43:12;;;;;;;;;;;;;;;24.30;46.04;99744.97;4984487;28;7011;-84
2022/09/09 15:45:49;;;;;;;;;;;;;;;24.09;46.86;99745.31;4993116;28;6994;-84
2022/09/09 15:48:18;;;;;;;;;;;;;;;23.98;47.69;99760.31;4997305;28;6980;-84
2022/09/09 15:50:47;;;;;;;;;;;;;;;23.93;48.22;99755.19;5006069;28;6998;-84
2022/09/09 15:53:13;;;;;;;;;;;;;;;23.91;47.94;99756.13;4994147;28;6856;-84
2022/09/09 15:55:43;;;;;;;;;;;;;;;23.93;48.22;99756.94;4994656;28;6818;-84
2022/09/09 15:58:12;;;;;;;;;;;;;;;24.05;48.53;99755.91;4994589;28;6842;-84
2022/09/09 16:00:38;;;;;;;;;;;;;;;24.24;48.65;99749.44;4991271;28;6986;-84
2022/09/09 16:03:07;;;;;;;;;;;;;;;24.44;48.34;99749.94;4994218;28;6790;-84
2022/09/09 16:05:46;;;;;;;;;;;;;;;24.57;47.90;99754.00;4978170;28;6966;-84
2022/09/09 16:08:12;;;;;;;;;;;;;;;24.60;47.23;99753.97;4996535;28;7202;-85
2022/09/09 16:10:41;;;;;;;;;;;;;;;24.58;47.55;99760.13;4992291;28;6965;-84
2022/09/09 16:13:10;;;;;;;;;;;;;;;24.50;47.62;99755.91;4978684;28;7330;-84
2022/09/09 16:15:45;;;;;;;;;;;;;;;24.54;47.37;99764.56;4992733;28;6879;-84
2022/09/09 16:21:21;;;;;;;;;;;;;;;24.68;47.87;99764.28;4988886;28;6808;-84
2022/09/09 16:29:59;;;;;;;;;;;;;;;24.67;47.25;99754.69;5000083;28;6812;-84
2022/09/09 16:32:38;;;;;;;;;;;;;;;24.59;46.80;99759.22;5010834;28;7004;-84
2022/09/09 16:35:05;;;;;;;;;;;;;;;24.46;46.96;99759.47;5001499;28;6946;-83
2022/09/09 16:37:59;;;;;;;;;;;;;;;24.33;47.39;99758.84;5031139;28;6825;-85
2022/09/09 16:43:36;;;;;;;;;;;;;;;24.00;47.08;99767.25;4994115;28;6804;-84
2022/09/09 16:46:15;;;;;;;;;;;;;;;23.87;47.64;99760.53;4979970;28;6988;-84
2022/09/09 16:49:43;;;;;;;;;;;;;;;23.75;48.06;99777.28;5012410;28;8357;-83
2022/09/09 16:55:25;;;;;;;;;;;;;;;23.48;48.04;99789.06;4931172;29;6967;-84
2022/09/09 16:57:51;;;;;;;;;;;;;;;23.36;47.97;99771.81;4985944;28;6976;-84
2022/09/09 17:00:20;;;;;;;;;;;;;;;23.26;48.56;99777.13;4995571;28;7079;-84
2022/09/09 17:02:46;;;;;;;;;;;;;;;23.16;48.69;99789.47;4996516;28;7023;-84
2022/09/09 17:05:13;;;;;;;;;;;;;;;23.06;48.70;99789.63;4983092;28;6861;-84
2022/09/09 17:07:47;;;;;;;;;;;;;;;22.99;48.63;99791.47;4999080;28;7082;-84
2022/09/09 17:10:23;;;;;;;;;;;;;;;22.91;48.67;99794.16;4996869;28;6954;-84
2022/09/09 17:12:49;;;;;;;;;;;;;;;22.84;49.10;99797.72;5009514;28;7019;-83
2022/09/09 17:15:30;;;;;;;;;;;;;;;22.77;49.06;99796.94;4996557;28;6957;-84
2022/09/09 17:18:02;;;;;;;;;;;;;;;22.73;49.44;99800.47;4995478;28;6885;-84
2022/09/09 17:20:28;;;;;;;;;;;;;;;22.70;49.36;99806.59;4980683;28;6998;-83
2022/09/09 17:23:04;;;;;;;;;;;;;;;22.68;49.72;99812.72;4992707;28;6985;-84
2022/09/09 17:25:36;;;;;;;;;;;;;;;22.63;49.68;99806.69;5015431;28;6794;-84
2022/09/09 17:28:30;;;;;;;;;;;;;;;22.61;49.86;99810.19;4996036;28;6832;-83
2022/09/09 17:31:41;;;;;;;;;;;;;;;22.58;49.47;99818.03;5008034;28;6803;-84
2022/09/09 17:34:17;;;;;;;;;;;;;;;22.55;50.11;99822.41;4972761;28;6967;-83
2022/09/09 17:37:13;;;;;;;;;;;;;;;22.51;50.06;99839.88;4996147;28;7193;-84
2022/09/09 17:40:02;;;;;;;;;;;;;;;22.45;50.14;99835.56;4996546;28;7066;-84
2022/09/09 17:42:58;;;;;;;;;;;;;;;22.39;50.28;99837.34;4979963;28;6806;-84
2022/09/09 17:46:08;;;;;;;;;;;;;;;;;;;;;
2022/09/09 17:49:13;;;;;;;;;;;;;;;;;;;;;
2022/09/09 17:51:59;;;;;;;;;;;;;;;22.23;50.94;99847.06;5007983;28;6852;-84
2022/09/09 17:55:12;;;;;;;;;;;;;;;22.16;50.67;99838.44;5000736;28;7060;-84
2022/09/09 17:58:24;;;;;;;;;;;;;;;22.07;50.88;99839.41;4887635;28;6967;-84